Kanopolis, Kansas
Current Conditions -  °F | °C
As of 7:53 PM on Thursday 18 Dec 2014 (Local Time) from KSLN Reporting Station
Overcast Overcast  
Wind Chill: 31°   Ceiling: 900
Heat Index: 31°   Visibility: 8mi
Dew Point: 27°   Wind: 0mph
Humidity: 85%   Direction: NA
Pressure: 30.24"   Gusts: NA
Location:  38.71°N, 98.16°W
Report Text: KSLN 190153Z 00000KT 8SM OVC009 M01/M03 A3024 RMK AO2 SLP252 T10061028
Loading
Personal Weather Stations






























Interactive Weather Map New forecast layout! Learn more

10-Day Weather Forecast

Advertisements
Track Severe Weather on mobile